sensor_id;sensor_type;location;lat;lon;timestamp;pressure;altitude;pressure_sealevel;temperature;humidity
11987;BME280;6053;51.382;6.768;2023-03-13T00:02:11;100071.78;;;9.78;100.00
11987;BME280;6053;51.382;6.768;2023-03-13T00:04:41;100068.94;;;9.73;100.00
11987;BME280;6053;51.382;6.768;2023-03-13T00:07:10;100056.69;;;9.69;100.00
11987;BME280;6053;51.382;6.768;2023-03-13T00:09:40;100040.81;;;9.59;100.00
11987;BME280;6053;51.382;6.768;2023-03-13T00:12:09;100046.34;;;9.88;100.00
11987;BME280;6053;51.382;6.768;2023-03-13T00:14:37;100038.56;;;9.97;100.00
11987;BME280;6053;51.382;6.768;2023-03-13T00:17:06;100036.50;;;9.92;100.00
11987;BME280;6053;51.382;6.768;2023-03-13T00:19:35;100028.25;;;9.92;100.00
11987;BME280;6053;51.382;6.768;2023-03-13T00:22:05;100013.44;;;9.81;100.00
11987;BME280;6053;51.382;6.768;2023-03-13T00:24:33;100012.34;;;9.82;100.00
11987;BME280;6053;51.382;6.768;2023-03-13T00:27:02;100006.81;;;9.94;100.00
11987;BME280;6053;51.382;6.768;2023-03-13T00:29:33;100012.53;;;10.21;100.00
11987;BME280;6053;51.382;6.768;2023-03-13T00:32:01;100001.56;;;10.38;100.00
11987;BME280;6053;51.382;6.768;2023-03-13T00:34:30;99995.72;;;10.06;100.00
11987;BME280;6053;51.382;6.768;2023-03-13T00:36:59;99993.91;;;10.11;100.00
11987;BME280;6053;51.382;6.768;2023-03-13T00:39:29;99994.38;;;10.08;100.00
11987;BME280;6053;51.382;6.768;2023-03-13T00:41:57;99989.69;;;9.92;100.00
11987;BME280;6053;51.382;6.768;2023-03-13T00:44:30;99983.75;;;9.83;100.00
11987;BME280;6053;51.382;6.768;2023-03-13T00:46:59;99984.28;;;9.97;100.00
11987;BME280;6053;51.382;6.768;2023-03-13T00:49:27;99978.72;;;9.80;100.00
11987;BME280;6053;51.382;6.768;2023-03-13T00:51:56;99970.69;;;10.07;100.00
11987;BME280;6053;51.382;6.768;2023-03-13T00:54:24;99966.16;;;10.01;100.00
11987;BME280;6053;51.382;6.768;2023-03-13T00:56:54;99949.44;;;9.91;100.00
11987;BME280;6053;51.382;6.768;2023-03-13T00:59:23;99951.38;;;9.90;100.00
11987;BME280;6053;51.382;6.768;2023-03-13T01:01:52;99935.75;;;9.79;100.00
11987;BME280;6053;51.382;6.768;2023-03-13T01:04:21;99936.28;;;9.93;100.00
11987;BME280;6053;51.382;6.768;2023-03-13T01:06:49;99930.91;;;9.58;100.00
11987;BME280;6053;51.382;6.768;2023-03-13T01:09:18;99932.44;;;9.37;100.00
11987;BME280;6053;51.382;6.768;2023-03-13T01:11:47;99919.28;;;9.39;100.00
11987;BME280;6053;51.382;6.768;2023-03-13T01:14:18;99912.84;;;9.21;100.00
11987;BME280;6053;51.382;6.768;2023-03-13T01:16:47;99908.75;;;9.36;100.00
11987;BME280;6053;51.382;6.768;2023-03-13T01:19:16;99903.72;;;9.33;100.00
11987;BME280;6053;51.382;6.768;2023-03-13T01:21:45;99898.31;;;9.38;100.00
11987;BME280;6053;51.382;6.768;2023-03-13T01:24:14;99897.59;;;9.42;100.00
11987;BME280;6053;51.382;6.768;2023-03-13T01:26:43;99890.47;;;9.30;100.00
11987;BME280;6053;51.382;6.768;2023-03-13T01:29:13;99893.16;;;9.41;100.00
11987;BME280;6053;51.382;6.768;2023-03-13T01:31:43;99891.53;;;9.57;100.00
11987;BME280;6053;51.382;6.768;2023-03-13T01:34:11;99880.22;;;9.42;100.00
11987;BME280;6053;51.382;6.768;2023-03-13T01:36:40;99876.75;;;9.47;100.00
11987;BME280;6053;51.382;6.768;2023-03-13T01:39:10;99865.09;;;9.28;100.00
11987;BME280;6053;51.382;6.768;2023-03-13T01:41:38;99867.56;;;9.12;100.00
11987;BME280;6053;51.382;6.768;2023-03-13T01:44:19;99858.94;;;9.37;100.00
11987;BME280;6053;51.382;6.768;2023-03-13T01:46:50;99855.38;;;9.37;100.00
11987;BME280;6053;51.382;6.768;2023-03-13T01:49:21;99857.38;;;9.41;100.00
11987;BME280;6053;51.382;6.768;2023-03-13T01:51:53;99839.63;;;9.49;100.00
11987;BME280;6053;51.382;6.768;2023-03-13T01:54:25;99848.56;;;9.28;100.00
11987;BME280;6053;51.382;6.768;2023-03-13T01:56:58;99824.59;;;9.11;100.00
11987;BME280;6053;51.382;6.768;2023-03-13T01:59:31;99823.13;;;9.20;100.00
11987;BME280;6053;51.382;6.768;2023-03-13T02:02:04;99823.56;;;9.29;100.00
11987;BME280;6053;51.382;6.768;2023-03-13T02:04:37;99809.72;;;9.24;100.00
11987;BME280;6053;51.382;6.768;2023-03-13T02:07:11;99810.03;;;9.28;100.00
11987;BME280;6053;51.382;6.768;2023-03-13T02:09:43;99798.53;;;9.31;100.00
11987;BME280;6053;51.382;6.768;2023-03-13T02:12:18;99793.03;;;9.31;100.00
11987;BME280;6053;51.382;6.768;2023-03-13T02:14:51;99784.63;;;9.37;100.00
11987;BME280;6053;51.382;6.768;2023-03-13T02:17:21;99775.34;;;9.27;100.00
11987;BME280;6053;51.382;6.768;2023-03-13T02:19:51;99765.34;;;9.20;100.00
11987;BME280;6053;51.382;6.768;2023-03-13T02:22:25;99755.00;;;9.28;100.00
11987;BME280;6053;51.382;6.768;2023-03-13T02:24:59;99754.34;;;9.20;100.00
11987;BME280;6053;51.382;6.768;2023-03-13T02:27:32;99758.84;;;9.27;100.00
11987;BME280;6053;51.382;6.768;2023-03-13T02:30:01;99752.09;;;9.34;100.00
11987;BME280;6053;51.382;6.768;2023-03-13T02:32:30;99755.34;;;9.31;100.00
11987;BME280;6053;51.382;6.768;2023-03-13T02:35:05;99745.09;;;9.43;100.00
11987;BME280;6053;51.382;6.768;2023-03-13T02:37:35;99734.59;;;9.40;100.00
11987;BME280;6053;51.382;6.768;2023-03-13T02:40:06;99730.19;;;9.39;100.00
11987;BME280;6053;51.382;6.768;2023-03-13T02:42:39;99721.81;;;9.34;100.00
11987;BME280;6053;51.382;6.768;2023-03-13T02:45:12;99713.81;;;9.50;100.00
11987;BME280;6053;51.382;6.768;2023-03-13T02:47:41;99718.50;;;9.49;100.00
11987;BME280;6053;51.382;6.768;2023-03-13T02:50:10;99716.81;;;9.48;100.00
11987;BME280;6053;51.382;6.768;2023-03-13T02:52:42;99710.06;;;9.39;100.00
11987;BME280;6053;51.382;6.768;2023-03-13T02:55:15;99712.41;;;9.47;100.00
11987;BME280;6053;51.382;6.768;2023-03-13T02:57:47;99699.13;;;9.61;100.00
11987;BME280;6053;51.382;6.768;2023-03-13T03:00:16;99695.19;;;9.74;100.00
11987;BME280;6053;51.382;6.768;2023-03-13T03:02:45;99680.13;;;9.59;100.00
11987;BME280;6053;51.382;6.768;2023-03-13T03:05:14;99673.72;;;9.76;100.00
11987;BME280;6053;51.382;6.768;2023-03-13T03:07:42;99670.66;;;9.72;100.00
11987;BME280;6053;51.382;6.768;2023-03-13T03:10:11;99672.38;;;9.78;100.00
11987;BME280;6053;51.382;6.768;2023-03-13T03:12:40;99657.19;;;9.76;100.00
11987;BME280;6053;51.382;6.768;2023-03-13T03:15:11;99675.91;;;9.74;100.00
11987;BME280;6053;51.382;6.768;2023-03-13T03:17:40;99669.22;;;9.86;100.00
11987;BME280;6053;51.382;6.768;2023-03-13T03:20:09;99669.97;;;9.82;100.00
11987;BME280;6053;51.382;6.768;2023-03-13T03:22:39;99671.06;;;9.81;100.00
11987;BME280;6053;51.382;6.768;2023-03-13T03:25:08;99675.22;;;9.83;100.00
11987;BME280;6053;51.382;6.768;2023-03-13T03:27:37;99663.13;;;9.84;100.00
11987;BME280;6053;51.382;6.768;2023-03-13T03:30:06;99660.31;;;9.79;100.00
11987;BME280;6053;51.382;6.768;2023-03-13T03:32:36;99651.78;;;9.81;100.00
11987;BME280;6053;51.382;6.768;2023-03-13T03:35:06;99662.16;;;9.96;100.00
11987;BME280;6053;51.382;6.768;2023-03-13T03:37:35;99664.72;;;10.02;100.00
11987;BME280;6053;51.382;6.768;2023-03-13T03:40:04;99662.88;;;10.08;100.00
11987;BME280;6053;51.382;6.768;2023-03-13T03:42:33;99654.81;;;10.01;100.00
11987;BME280;6053;51.382;6.768;2023-03-13T03:45:01;99661.66;;;9.99;100.00
11987;BME280;6053;51.382;6.768;2023-03-13T03:47:30;99655.22;;;10.10;100.00
11987;BME280;6053;51.382;6.768;2023-03-13T03:50:00;99658.19;;;10.08;100.00
11987;BME280;6053;51.382;6.768;2023-03-13T03:52:29;99671.59;;;10.22;100.00
11987;BME280;6053;51.382;6.768;2023-03-13T03:54:58;99672.44;;;10.22;100.00
11987;BME280;6053;51.382;6.768;2023-03-13T03:57:27;99676.72;;;10.30;100.00
11987;BME280;6053;51.382;6.768;2023-03-13T03:59:55;99662.34;;;10.28;100.00
11987;BME280;6053;51.382;6.768;2023-03-13T04:02:24;99664.06;;;10.34;100.00
11987;BME280;6053;51.382;6.768;2023-03-13T04:04:53;99664.06;;;10.34;100.00
11987;BME280;6053;51.382;6.768;2023-03-13T04:07:23;99659.84;;;10.26;100.00
11987;BME280;6053;51.382;6.768;2023-03-13T04:09:52;99652.03;;;10.40;100.00
11987;BME280;6053;51.382;6.768;2023-03-13T04:12:21;99648.69;;;10.38;100.00
11987;BME280;6053;51.382;6.768;2023-03-13T04:14:49;99648.47;;;10.45;100.00
11987;BME280;6053;51.382;6.768;2023-03-13T04:17:18;99648.25;;;10.46;100.00
11987;BME280;6053;51.382;6.768;2023-03-13T04:19:47;99642.19;;;10.49;100.00
11987;BME280;6053;51.382;6.768;2023-03-13T04:22:15;99628.50;;;10.59;100.00
11987;BME280;6053;51.382;6.768;2023-03-13T04:24:45;99632.75;;;10.67;100.00
11987;BME280;6053;51.382;6.768;2023-03-13T04:27:14;99630.94;;;10.56;100.00
11987;BME280;6053;51.382;6.768;2023-03-13T04:29:43;99616.44;;;10.66;100.00
11987;BME280;6053;51.382;6.768;2023-03-13T04:32:11;99628.78;;;10.58;100.00
11987;BME280;6053;51.382;6.768;2023-03-13T04:34:40;99632.84;;;10.77;100.00
11987;BME280;6053;51.382;6.768;2023-03-13T04:37:08;99623.47;;;10.78;100.00
11987;BME280;6053;51.382;6.768;2023-03-13T04:39:37;99629.81;;;10.79;100.00
11987;BME280;6053;51.382;6.768;2023-03-13T04:42:09;99624.34;;;10.84;100.00
11987;BME280;6053;51.382;6.768;2023-03-13T04:44:38;99625.47;;;10.88;100.00
11987;BME280;6053;51.382;6.768;2023-03-13T04:47:09;99615.56;;;10.87;100.00
11987;BME280;6053;51.382;6.768;2023-03-13T04:49:38;99624.53;;;11.04;100.00
11987;BME280;6053;51.382;6.768;2023-03-13T04:52:07;99621.19;;;11.02;100.00
11987;BME280;6053;51.382;6.768;2023-03-13T04:54:35;99612.00;;;11.24;100.00
11987;BME280;6053;51.382;6.768;2023-03-13T04:57:04;99611.59;;;11.10;100.00
11987;BME280;6053;51.382;6.768;2023-03-13T04:59:34;99613.06;;;11.23;100.00
11987;BME280;6053;51.382;6.768;2023-03-13T05:02:03;99601.91;;;11.07;100.00
11987;BME280;6053;51.382;6.768;2023-03-13T05:04:31;99600.06;;;11.18;100.00
11987;BME280;6053;51.382;6.768;2023-03-13T05:07:00;99604.72;;;11.13;100.00
11987;BME280;6053;51.382;6.768;2023-03-13T05:09:29;99594.56;;;11.18;100.00
11987;BME280;6053;51.382;6.768;2023-03-13T05:11:57;99594.25;;;11.15;100.00
11987;BME280;6053;51.382;6.768;2023-03-13T05:14:26;99589.59;;;11.20;100.00
11987;BME280;6053;51.382;6.768;2023-03-13T05:16:56;99584.94;;;11.26;100.00
11987;BME280;6053;51.382;6.768;2023-03-13T05:19:25;99584.38;;;11.24;100.00
11987;BME280;6053;51.382;6.768;2023-03-13T05:21:53;99585.81;;;11.37;100.00
11987;BME280;6053;51.382;6.768;2023-03-13T05:24:22;99584.16;;;11.30;100.00
11987;BME280;6053;51.382;6.768;2023-03-13T05:26:50;99577.53;;;11.37;100.00
11987;BME280;6053;51.382;6.768;2023-03-13T05:29:19;99569.59;;;11.45;100.00
11987;BME280;6053;51.382;6.768;2023-03-13T05:31:48;99574.88;;;11.47;100.00
11987;BME280;6053;51.382;6.768;2023-03-13T05:34:18;99571.50;;;11.40;100.00
11987;BME280;6053;51.382;6.768;2023-03-13T05:36:46;99577.31;;;11.43;100.00
11987;BME280;6053;51.382;6.768;2023-03-13T05:39:15;99576.13;;;11.29;100.00
11987;BME280;6053;51.382;6.768;2023-03-13T05:41:44;99579.81;;;11.45;100.00
11987;BME280;6053;51.382;6.768;2023-03-13T05:44:12;99577.38;;;11.53;100.00
11987;BME280;6053;51.382;6.768;2023-03-13T05:46:41;99588.97;;;11.50;100.00
11987;BME280;6053;51.382;6.768;2023-03-13T05:49:10;99575.75;;;11.57;100.00
11987;BME280;6053;51.382;6.768;2023-03-13T05:51:40;99573.25;;;11.51;100.00
11987;BME280;6053;51.382;6.768;2023-03-13T05:54:08;99573.00;;;11.57;100.00
11987;BME280;6053;51.382;6.768;2023-03-13T05:56:39;99573.00;;;11.57;100.00
11987;BME280;6053;51.382;6.768;2023-03-13T05:59:08;99575.22;;;11.61;100.00
11987;BME280;6053;51.382;6.768;2023-03-13T06:01:37;99566.59;;;11.52;100.00
11987;BME280;6053;51.382;6.768;2023-03-13T06:04:05;99561.72;;;11.64;100.00
11987;BME280;6053;51.382;6.768;2023-03-13T06:06:34;99565.94;;;11.77;100.00
11987;BME280;6053;51.382;6.768;2023-03-13T06:09:04;99558.19;;;11.79;100.00
11987;BME280;6053;51.382;6.768;2023-03-13T06:11:33;99567.81;;;11.71;100.00
11987;BME280;6053;51.382;6.768;2023-03-13T06:14:01;99568.09;;;11.75;100.00
11987;BME280;6053;51.382;6.768;2023-03-13T06:16:30;99557.63;;;11.77;100.00
11987;BME280;6053;51.382;6.768;2023-03-13T06:18:59;99567.53;;;11.68;100.00
11987;BME280;6053;51.382;6.768;2023-03-13T06:21:28;99564.81;;;11.83;100.00
11987;BME280;6053;51.382;6.768;2023-03-13T06:23:57;99558.25;;;11.89;100.00
11987;BME280;6053;51.382;6.768;2023-03-13T06:26:27;99561.63;;;12.01;100.00
11987;BME280;6053;51.382;6.768;2023-03-13T06:28:56;99556.34;;;12.00;100.00
11987;BME280;6053;51.382;6.768;2023-03-13T06:31:25;99566.28;;;11.91;100.00
11987;BME280;6053;51.382;6.768;2023-03-13T06:33:54;99557.47;;;11.99;100.00
11987;BME280;6053;51.382;6.768;2023-03-13T06:36:23;99559.06;;;11.85;100.00
11987;BME280;6053;51.382;6.768;2023-03-13T06:38:52;99570.41;;;11.93;100.00
11987;BME280;6053;51.382;6.768;2023-03-13T06:41:21;99568.28;;;12.06;100.00
11987;BME280;6053;51.382;6.768;2023-03-13T06:43:52;99564.97;;;12.09;100.00
11987;BME280;6053;51.382;6.768;2023-03-13T06:46:22;99584.00;;;12.00;100.00
11987;BME280;6053;51.382;6.768;2023-03-13T06:48:51;99590.66;;;12.04;100.00
11987;BME280;6053;51.382;6.768;2023-03-13T06:51:21;99584.03;;;12.10;100.00
11987;BME280;6053;51.382;6.768;2023-03-13T06:53:49;99586.81;;;12.15;100.00
11987;BME280;6053;51.382;6.768;2023-03-13T06:56:19;99576.38;;;12.27;100.00
11987;BME280;6053;51.382;6.768;2023-03-13T06:58:49;99572.19;;;12.30;100.00
11987;BME280;6053;51.382;6.768;2023-03-13T07:01:19;99567.25;;;12.37;100.00
11987;BME280;6053;51.382;6.768;2023-03-13T07:03:48;99568.91;;;12.33;100.00
11987;BME280;6053;51.382;6.768;2023-03-13T07:06:17;99560.59;;;12.28;100.00
11987;BME280;6053;51.382;6.768;2023-03-13T07:08:46;99572.47;;;12.18;100.00
11987;BME280;6053;51.382;6.768;2023-03-13T07:11:15;99559.78;;;12.33;100.00
11987;BME280;6053;51.382;6.768;2023-03-13T07:13:44;99570.56;;;12.24;100.00
11987;BME280;6053;51.382;6.768;2023-03-13T07:16:13;99560.91;;;12.42;100.00
11987;BME280;6053;51.382;6.768;2023-03-13T07:18:44;99561.44;;;12.34;100.00
11987;BME280;6053;51.382;6.768;2023-03-13T07:21:13;99556.47;;;12.46;100.00
11987;BME280;6053;51.382;6.768;2023-03-13T07:23:41;99560.66;;;12.48;100.00
11987;BME280;6053;51.382;6.768;2023-03-13T07:26:11;99549.31;;;12.55;100.00
11987;BME280;6053;51.382;6.768;2023-03-13T07:28:41;99546.53;;;12.50;100.00
11987;BME280;6053;51.382;6.768;2023-03-13T07:31:12;99546.25;;;12.41;100.00
11987;BME280;6053;51.382;6.768;2023-03-13T07:33:43;99542.13;;;12.64;100.00
11987;BME280;6053;51.382;6.768;2023-03-13T07:36:13;99546.00;;;12.63;100.00
11987;BME280;6053;51.382;6.768;2023-03-13T07:38:42;99535.47;;;12.60;100.00
11987;BME280;6053;51.382;6.768;2023-03-13T07:41:11;99536.31;;;12.56;100.00
11987;BME280;6053;51.382;6.768;2023-03-13T07:43:40;99532.72;;;12.70;100.00
11987;BME280;6053;51.382;6.768;2023-03-13T07:46:11;99537.97;;;12.72;100.00
11987;BME280;6053;51.382;6.768;2023-03-13T07:48:41;99534.38;;;12.71;100.00
11987;BME280;6053;51.382;6.768;2023-03-13T07:51:13;99534.09;;;12.63;100.00
11987;BME280;6053;51.382;6.768;2023-03-13T07:53:43;99531.34;;;12.58;100.00
11987;BME280;6053;51.382;6.768;2023-03-13T07:56:15;99535.75;;;12.48;100.00
11987;BME280;6053;51.382;6.768;2023-03-13T07:58:44;99546.25;;;12.57;100.00
11987;BME280;6053;51.382;6.768;2023-03-13T08:01:16;99535.50;;;12.65;100.00
11987;BME280;6053;51.382;6.768;2023-03-13T08:03:45;99533.84;;;12.64;100.00
11987;BME280;6053;51.382;6.768;2023-03-13T08:06:18;99529.69;;;12.82;100.00
11987;BME280;6053;51.382;6.768;2023-03-13T08:08:47;99530.22;;;12.84;100.00
11987;BME280;6053;51.382;6.768;2023-03-13T08:11:17;99517.50;;;12.78;100.00
11987;BME280;6053;51.382;6.768;2023-03-13T08:13:47;99532.72;;;12.70;100.00
11987;BME280;6053;51.382;6.768;2023-03-13T08:16:18;99526.09;;;12.92;100.00
11987;BME280;6053;51.382;6.768;2023-03-13T08:18:49;99516.66;;;12.93;100.00
11987;BME280;6053;51.382;6.768;2023-03-13T08:21:21;99517.78;;;12.92;100.00
11987;BME280;6053;51.382;6.768;2023-03-13T08:23:52;99542.13;;;13.05;100.00
11987;BME280;6053;51.382;6.768;2023-03-13T08:26:23;99537.13;;;12.97;100.00
11987;BME280;6053;51.382;6.768;2023-03-13T08:28:53;99525.53;;;12.95;100.00
11987;BME280;6053;51.382;6.768;2023-03-13T08:31:23;99544.06;;;13.05;100.00
11987;BME280;6053;51.382;6.768;2023-03-13T08:33:52;99541.56;;;13.03;100.00
11987;BME280;6053;51.382;6.768;2023-03-13T08:36:23;99544.88;;;13.15;100.00
11987;BME280;6053;51.382;6.768;2023-03-13T08:38:54;99546.03;;;13.25;100.00
11987;BME280;6053;51.382;6.768;2023-03-13T08:41:24;99548.22;;;13.12;100.00
11987;BME280;6053;51.382;6.768;2023-03-13T08:43:54;99536.59;;;13.26;100.00
11987;BME280;6053;51.382;6.768;2023-03-13T08:46:24;99544.88;;;13.20;100.00
11987;BME280;6053;51.382;6.768;2023-03-13T08:48:53;99542.94;;;13.16;100.00
11987;BME280;6053;51.382;6.768;2023-03-13T08:51:25;99541.56;;;13.13;100.00
11987;BME280;6053;51.382;6.768;2023-03-13T08:53:54;99535.47;;;13.27;100.00
11987;BME280;6053;51.382;6.768;2023-03-13T08:56:25;99529.66;;;13.33;100.00
11987;BME280;6053;51.382;6.768;2023-03-13T08:58:58;99538.53;;;13.25;100.00
11987;BME280;6053;51.382;6.768;2023-03-13T09:01:28;99534.34;;;13.43;100.00
11987;BME280;6053;51.382;6.768;2023-03-13T09:03:57;99533.75;;;13.51;100.00
11987;BME280;6053;51.382;6.768;2023-03-13T09:06:32;99522.97;;;13.50;100.00
11987;BME280;6053;51.382;6.768;2023-03-13T09:09:01;99515.75;;;13.54;100.00
11987;BME280;6053;51.382;6.768;2023-03-13T09:11:30;99511.84;;;13.60;100.00
11987;BME280;6053;51.382;6.768;2023-03-13T09:13:59;99519.84;;;13.66;100.00
11987;BME280;6053;51.382;6.768;2023-03-13T09:16:29;99513.00;;;13.49;100.00
11987;BME280;6053;51.382;6.768;2023-03-13T09:18:59;99505.16;;;13.66;100.00
11987;BME280;6053;51.382;6.768;2023-03-13T09:21:31;99509.28;;;13.79;100.00
11987;BME280;6053;51.382;6.768;2023-03-13T09:24:00;99500.16;;;13.73;100.00
11987;BME280;6053;51.382;6.768;2023-03-13T09:26:29;99511.53;;;13.61;100.00
11987;BME280;6053;51.382;6.768;2023-03-13T09:28:58;99502.19;;;13.52;100.00
11987;BME280;6053;51.382;6.768;2023-03-13T09:31:28;99493.84;;;13.57;100.00
11987;BME280;6053;51.382;6.768;2023-03-13T09:33:57;99493.28;;;13.60;100.00
11987;BME280;6053;51.382;6.768;2023-03-13T09:36:26;99513.81;;;13.49;100.00
11987;BME280;6053;51.382;6.768;2023-03-13T09:38:58;99496.44;;;13.28;100.00
11987;BME280;6053;51.382;6.768;2023-03-13T09:41:31;99499.47;;;13.16;100.00
11987;BME280;6053;51.382;6.768;2023-03-13T09:44:05;99482.31;;;13.25;100.00
11987;BME280;6053;51.382;6.768;2023-03-13T09:46:40;99479.19;;;13.47;100.00
11987;BME280;6053;51.382;6.768;2023-03-13T09:49:28;99475.88;;;13.44;100.00
11987;BME280;6053;51.382;6.768;2023-03-13T09:52:06;99469.28;;;13.35;100.00
11987;BME280;6053;51.382;6.768;2023-03-13T09:54:45;99469.56;;;13.29;100.00
11987;BME280;6053;51.382;6.768;2023-03-13T09:57:19;99466.50;;;13.30;100.00
11987;BME280;6053;51.382;6.768;2023-03-13T09:59:54;99475.66;;;13.26;100.00
11987;BME280;6053;51.382;6.768;2023-03-13T10:02:29;99470.94;;;13.31;100.00
11987;BME280;6053;51.382;6.768;2023-03-13T10:05:05;99453.59;;;13.75;100.00
11987;BME280;6053;51.382;6.768;2023-03-13T10:07:36;99461.78;;;13.96;100.00
11987;BME280;6053;51.382;6.768;2023-03-13T10:10:12;99470.25;;;14.14;100.00
11987;BME280;6053;51.382;6.768;2023-03-13T10:12:44;99449.88;;;14.34;100.00
11987;BME280;6053;51.382;6.768;2023-03-13T10:15:33;99454.94;;;14.61;100.00
11987;BME280;6053;51.382;6.768;2023-03-13T10:18:14;99444.16;;;14.60;100.00
11987;BME280;6053;51.382;6.768;2023-03-13T10:20:49;99433.69;;;14.47;100.00
11987;BME280;6053;51.382;6.768;2023-03-13T10:23:33;99441.53;;;14.34;100.00
11987;BME280;6053;51.382;6.768;2023-03-13T10:26:11;99426.25;;;14.42;100.00
11987;BME280;6053;51.382;6.768;2023-03-13T10:28:43;99422.28;;;14.48;100.00
11987;BME280;6053;51.382;6.768;2023-03-13T10:31:18;99424.25;;;14.53;100.00
11987;BME280;6053;51.382;6.768;2023-03-13T10:33:49;99426.25;;;14.76;100.00
11987;BME280;6053;51.382;6.768;2023-03-13T10:36:18;99412.16;;;14.97;100.00
11987;BME280;6053;51.382;6.768;2023-03-13T10:38:50;99421.44;;;15.11;100.00
11987;BME280;6053;51.382;6.768;2023-03-13T10:41:25;99403.97;;;15.05;100.00
11987;BME280;6053;51.382;6.768;2023-03-13T10:44:00;99405.69;;;15.01;100.00
11987;BME280;6053;51.382;6.768;2023-03-13T10:46:33;99409.81;;;15.09;100.00
11987;BME280;6053;51.382;6.768;2023-03-13T10:49:03;99397.56;;;15.10;100.00
11987;BME280;6053;51.382;6.768;2023-03-13T10:51:46;99400.09;;;15.06;100.00
11987;BME280;6053;51.382;6.768;2023-03-13T10:54:22;99402.88;;;15.06;100.00
11987;BME280;6053;51.382;6.768;2023-03-13T10:57:22;99397.97;;;15.22;100.00
11987;BME280;6053;51.382;6.768;2023-03-13T10:59:54;99390.50;;;15.42;100.00
11987;BME280;6053;51.382;6.768;2023-03-13T11:02:28;99380.53;;;15.41;100.00
11987;BME280;6053;51.382;6.768;2023-03-13T11:04:58;99375.19;;;15.44;100.00
11987;BME280;6053;51.382;6.768;2023-03-13T11:07:31;99381.94;;;15.38;100.00
11987;BME280;6053;51.382;6.768;2023-03-13T11:10:07;99368.53;;;15.64;100.00
11987;BME280;6053;51.382;6.768;2023-03-13T11:12:47;99382.34;;;15.50;100.00
11987;BME280;6053;51.382;6.768;2023-03-13T11:15:22;99385.03;;;15.55;100.00
11987;BME280;6053;51.382;6.768;2023-03-13T11:17:58;99375.22;;;15.63;100.00
11987;BME280;6053;51.382;6.768;2023-03-13T11:20:30;99365.94;;;15.49;100.00
11987;BME280;6053;51.382;6.768;2023-03-13T11:23:16;99367.16;;;15.62;100.00
11987;BME280;6053;51.382;6.768;2023-03-13T11:25:56;99358.16;;;15.51;100.00
11987;BME280;6053;51.382;6.768;2023-03-13T11:28:46;99359.13;;;15.60;100.00
11987;BME280;6053;51.382;6.768;2023-03-13T11:31:23;99367.88;;;15.72;100.00
11987;BME280;6053;51.382;6.768;2023-03-13T11:34:01;99340.88;;;15.92;100.00
11987;BME280;6053;51.382;6.768;2023-03-13T11:36:34;99326.91;;;15.97;100.00
11987;BME280;6053;51.382;6.768;2023-03-13T11:39:35;99339.31;;;16.05;100.00
11987;BME280;6053;51.382;6.768;2023-03-13T11:42:27;99324.94;;;16.16;100.00
11987;BME280;6053;51.382;6.768;2023-03-13T11:45:07;99332.22;;;16.12;100.00
11987;BME280;6053;51.382;6.768;2023-03-13T11:47:49;99324.69;;;16.13;100.00
11987;BME280;6053;51.382;6.768;2023-03-13T11:50:36;99309.09;;;16.31;100.00
11987;BME280;6053;51.382;6.768;2023-03-13T11:53:25;99302.41;;;16.32;100.00
11987;BME280;6053;51.382;6.768;2023-03-13T11:56:07;99297.16;;;16.30;100.00
11987;BME280;6053;51.382;6.768;2023-03-13T12:01:33;99298.00;;;16.12;100.00
11987;BME280;6053;51.382;6.768;2023-03-13T12:04:10;99288.13;;;16.19;100.00
11987;BME280;6053;51.382;6.768;2023-03-13T12:06:43;99281.25;;;16.17;100.00
11987;BME280;6053;51.382;6.768;2023-03-13T12:09:18;99272.56;;;16.18;100.00
11987;BME280;6053;51.382;6.768;2023-03-13T12:11:55;99272.06;;;16.16;100.00
11987;BME280;6053;51.382;6.768;2023-03-13T12:14:32;99291.00;;;16.14;100.00
11987;BME280;6053;51.382;6.768;2023-03-13T12:17:09;99272.94;;;15.98;100.00
11987;BME280;6053;51.382;6.768;2023-03-13T12:19:45;99270.16;;;15.98;100.00
11987;BME280;6053;51.382;6.768;2023-03-13T12:22:19;99267.13;;;15.81;100.00
11987;BME280;6053;51.382;6.768;2023-03-13T12:24:55;99267.97;;;15.95;100.00
11987;BME280;6053;51.382;6.768;2023-03-13T12:27:33;99256.44;;;16.34;100.00
11987;BME280;6053;51.382;6.768;2023-03-13T12:30:08;99255.28;;;16.21;100.00
11987;BME280;6053;51.382;6.768;2023-03-13T12:32:54;99256.59;;;16.10;100.00
11987;BME280;6053;51.382;6.768;2023-03-13T12:35:27;99257.81;;;16.04;100.00
11987;BME280;6053;51.382;6.768;2023-03-13T12:38:03;99253.56;;;15.93;100.00
11987;BME280;6053;51.382;6.768;2023-03-13T12:40:42;99264.97;;;15.91;100.00
11987;BME280;6053;51.382;6.768;2023-03-13T12:43:18;99242.94;;;15.95;100.00
11987;BME280;6053;51.382;6.768;2023-03-13T12:46:05;99229.09;;;16.22;100.00
11987;BME280;6053;51.382;6.768;2023-03-13T12:49:05;99244.91;;;16.55;100.00
11987;BME280;6053;51.382;6.768;2023-03-13T12:51:51;99236.75;;;16.44;100.00
11987;BME280;6053;51.382;6.768;2023-03-13T12:54:43;99240.69;;;16.43;100.00
11987;BME280;6053;51.382;6.768;2023-03-13T12:57:28;99213.75;;;16.53;100.00
11987;BME280;6053;51.382;6.768;2023-03-13T13:00:10;99210.16;;;16.66;100.00
11987;BME280;6053;51.382;6.768;2023-03-13T13:02:42;99216.53;;;16.53;100.00
11987;BME280;6053;51.382;6.768;2023-03-13T13:05:19;99199.88;;;16.80;100.00
11987;BME280;6053;51.382;6.768;2023-03-13T13:07:53;99207.88;;;16.68;100.00
11987;BME280;6053;51.382;6.768;2023-03-13T13:10:23;99206.88;;;16.50;100.00
11987;BME280;6053;51.382;6.768;2023-03-13T13:13:18;99192.41;;;16.62;100.00
11987;BME280;6053;51.382;6.768;2023-03-13T13:15:58;99186.94;;;16.43;100.00
11987;BME280;6053;51.382;6.768;2023-03-13T13:18:28;99174.59;;;16.49;100.00
11987;BME280;6053;51.382;6.768;2023-03-13T13:21:22;99186.16;;;16.84;100.00
11987;BME280;6053;51.382;6.768;2023-03-13T13:23:52;99178.19;;;16.63;100.00
11987;BME280;6053;51.382;6.768;2023-03-13T13:26:49;99173.22;;;16.74;100.00
11987;BME280;6053;51.382;6.768;2023-03-13T13:29:57;99185.22;;;16.75;100.00
11987;BME280;6053;51.382;6.768;2023-03-13T13:32:44;99166.22;;;16.90;100.00